Airfield :
LOGIN :

Register | Disclaimer

   EN    FR    IT 

 










Legend :    VFR   Marginal VFR   IFR   Intensive IFR   Very Intensive IFR
Visi :
Ceiling :
>= 8 km
>= 3000ft
5 to 8 km
1000 to 3000 ft
1500m to 5 km
500 to 1000 ft
800 to 1500m
200 to 500 ft
< 800m
< 200 ft
Symbols :   Thunderstorms  Fog  Heavy snow  Heavy precipitations  Wind > 20 kt
SIGMETs :     Misc.  Thunderstorms  Icing  Turbulence  Mountain Waves  Volcanic Ashes






- Airport Elevation : 302 ft
- IATA code : CGN


EDDK - Cologne Bonn

CURRENT METAR :
  • 200650Z 10003KT 070V130 2500 0900E R14L/1900N R24/P2000N BCFG FEW007 00/00 Q1019 TEMPO 0800 FZFG

EXPIRED METARs :
  • 200620Z VRB01KT 2000 0900W R14L/P2000N R24/P2000N BCFG FEW033 M01/M01 Q1019 TEMPO 0800 FZFG
  • 200550Z 16003KT 120V180 4000 BR FEW030 00/M00 Q1019 BECMG 1500 BCFG
  • 200520Z VRB02KT 5000 BR SCT027 01/01 Q1019 BECMG 3000
  • 200450Z 06004KT 030V090 9999 BKN027 02/02 Q1019 NOSIG
  • 200420Z 15003KT 100V170 9999 BKN025 02/01 Q1019 NOSIG

TAF AMD TAF EDDK
Valid from the 20 at 06:00 until the 21 at 12:00 UTC


200622Z 2006/2112 11005KT 3000 BR FEW005
PROB30
TEMPO 2006/2009 0800 FZFG BKN001
BECMG 2009/2012 9999



MET'MAP, your aeronautical weather chart ! - Copyright ORBIFLY December 2007 - Disclaimer

ORBIFLY MET'MAP TEAM :

Programming & Development : Alexandra Zaïnal
Concept & Development : Baudouin d'Aumeries
Co-Development & Prog : Marc-Olivier Méhu
Technical & hardware support : Manuel Goepfert

Contact : metmap@orbifly.com




SOURCES & CREDITS :

   NOAA